createdAt,value
2023-04-05T00:02:18.697Z,1.70
2023-04-05T00:04:50.638Z,1.43
2023-04-05T00:07:19.135Z,1.30
2023-04-05T00:09:46.482Z,1.80
2023-04-05T00:12:13.346Z,1.93
2023-04-05T00:14:40.765Z,1.40
2023-04-05T00:17:09.456Z,1.53
2023-04-05T00:19:38.124Z,1.53
2023-04-05T00:22:05.370Z,1.40
2023-04-05T00:24:33.625Z,1.30
2023-04-05T00:27:01.085Z,1.87
2023-04-05T00:29:28.170Z,1.23
2023-04-05T00:31:55.971Z,1.27
2023-04-05T00:34:23.135Z,1.60
2023-04-05T00:36:49.939Z,1.70
2023-04-05T00:39:17.015Z,1.20
2023-04-05T00:41:45.802Z,1.30
2023-04-05T00:44:14.935Z,1.50
2023-04-05T00:46:42.195Z,1.70
2023-04-05T00:49:10.256Z,1.47
2023-04-05T00:51:38.123Z,1.53
2023-04-05T00:54:05.555Z,1.53
2023-04-05T00:56:32.709Z,1.20
2023-04-05T00:58:59.950Z,1.90
2023-04-05T01:01:27.993Z,1.60
2023-04-05T01:04:03.509Z,1.40
2023-04-05T01:06:57.946Z,1.47
2023-04-05T01:09:57.413Z,1.50
2023-04-05T01:12:27.225Z,1.70
2023-04-05T01:14:55.450Z,1.40
2023-04-05T01:17:24.320Z,1.70
2023-04-05T01:19:54.287Z,1.50
2023-04-05T01:22:48.791Z,1.40
2023-04-05T01:25:42.876Z,1.60
2023-04-05T01:28:44.124Z,1.60
2023-04-05T01:31:41.552Z,1.30
2023-04-05T01:34:20.416Z,1.50
2023-04-05T01:36:56.622Z,1.40
2023-04-05T01:39:25.472Z,1.67
2023-04-05T01:41:52.568Z,1.67
2023-04-05T01:44:19.627Z,1.20
2023-04-05T01:46:46.731Z,1.60
2023-04-05T01:49:13.802Z,1.57
2023-04-05T01:51:42.146Z,1.03
2023-04-05T01:54:09.710Z,1.40
2023-04-05T01:56:36.799Z,1.40
2023-04-05T01:59:03.965Z,2.47
2023-04-05T02:01:32.136Z,1.40
2023-04-05T02:03:59.335Z,1.43
2023-04-05T02:06:27.325Z,1.27
2023-04-05T02:08:53.903Z,1.47
2023-04-05T02:11:21.096Z,1.30
2023-04-05T02:13:48.171Z,1.50
2023-04-05T02:16:16.129Z,1.60
2023-04-05T02:18:43.595Z,1.57
2023-04-05T02:21:10.718Z,1.40
2023-04-05T02:23:38.280Z,1.40
2023-04-05T02:26:05.491Z,2.00
2023-04-05T02:28:32.537Z,2.00
2023-04-05T02:30:59.598Z,1.70
2023-04-05T02:33:27.654Z,1.37
2023-04-05T02:35:54.858Z,1.70
2023-04-05T02:38:22.037Z,1.50
2023-04-05T02:40:49.524Z,1.70
2023-04-05T02:43:16.852Z,1.60
2023-04-05T02:45:45.617Z,1.40
2023-04-05T02:48:14.605Z,1.60
2023-04-05T02:50:42.302Z,1.60
2023-04-05T02:53:09.570Z,1.60
2023-04-05T02:55:37.000Z,1.90
2023-04-05T02:58:04.113Z,1.97
2023-04-05T03:00:38.214Z,1.47
2023-04-05T03:03:05.810Z,1.60
2023-04-05T03:05:34.341Z,1.37
2023-04-05T03:08:02.279Z,1.90
2023-04-05T03:10:35.960Z,1.60
2023-04-05T03:13:11.230Z,1.80
2023-04-05T03:15:38.838Z,1.80
2023-04-05T03:18:11.115Z,1.90
2023-04-05T03:20:40.097Z,1.67
2023-04-05T03:23:10.084Z,1.47
2023-04-05T03:25:37.280Z,1.53
2023-04-05T03:28:06.193Z,1.70
2023-04-05T03:30:33.708Z,2.00
2023-04-05T03:33:11.852Z,1.47
2023-04-05T03:35:43.611Z,1.63
2023-04-05T03:38:11.898Z,2.00
2023-04-05T03:40:46.953Z,2.10
2023-04-05T03:43:14.089Z,2.07
2023-04-05T03:45:41.428Z,1.50
2023-04-05T03:48:08.348Z,1.87
2023-04-05T03:50:35.487Z,1.97
2023-04-05T03:53:03.270Z,1.97
2023-04-05T03:55:30.464Z,1.80
2023-04-05T03:58:01.238Z,1.40
2023-04-05T04:00:33.557Z,1.73
2023-04-05T04:03:21.488Z,2.23
2023-04-05T04:05:51.606Z,1.77
2023-04-05T04:08:19.785Z,2.27
2023-04-05T04:10:46.661Z,1.83
2023-04-05T04:13:19.308Z,2.27
2023-04-05T04:15:51.124Z,2.00
2023-04-05T04:18:26.405Z,2.07
2023-04-05T04:21:19.021Z,2.10
2023-04-05T04:23:55.704Z,2.77
2023-04-05T04:26:42.872Z,1.90
2023-04-05T04:29:30.627Z,1.90
2023-04-05T04:32:43.184Z,2.23
2023-04-05T04:35:24.964Z,1.53
2023-04-05T04:38:01.721Z,1.77
2023-04-05T04:40:47.208Z,2.80
2023-04-05T04:43:33.839Z,1.87
2023-04-05T04:46:19.048Z,2.00
2023-04-05T04:49:21.486Z,2.30
2023-04-05T04:51:48.916Z,2.00
2023-04-05T04:54:20.906Z,2.17
2023-04-05T04:56:48.460Z,1.70
2023-04-05T04:59:16.087Z,2.10
2023-04-05T05:01:45.829Z,1.90
2023-04-05T05:04:12.978Z,2.00
2023-04-05T05:06:41.623Z,1.63
2023-04-05T05:09:08.680Z,1.90
2023-04-05T05:11:49.606Z,1.60
2023-04-05T05:14:16.691Z,1.63
2023-04-05T05:16:44.576Z,1.90
2023-04-05T05:19:11.683Z,1.80
2023-04-05T05:21:46.939Z,2.40
2023-04-05T05:24:14.413Z,2.20
2023-04-05T05:26:41.937Z,2.07
2023-04-05T05:29:09.016Z,2.43
2023-04-05T05:31:39.233Z,2.10
2023-04-05T05:34:06.647Z,2.03
2023-04-05T05:36:33.404Z,2.07
2023-04-05T05:39:00.629Z,2.30
2023-04-05T05:41:27.680Z,2.20
2023-04-05T05:43:54.692Z,2.83
2023-04-05T05:46:22.160Z,2.97
2023-04-05T05:48:49.248Z,2.07
2023-04-05T05:51:16.792Z,2.20
2023-04-05T05:53:43.887Z,2.40
2023-04-05T05:56:11.388Z,1.90
2023-04-05T05:58:38.633Z,2.20
2023-04-05T06:01:07.437Z,2.03
2023-04-05T06:03:34.589Z,2.20
2023-04-05T06:06:05.739Z,2.13
2023-04-05T06:08:32.351Z,2.03
2023-04-05T06:10:59.469Z,2.20
2023-04-05T06:13:26.574Z,2.20
2023-04-05T06:15:53.637Z,2.20
2023-04-05T06:18:21.509Z,1.90
2023-04-05T06:20:48.644Z,2.20
2023-04-05T06:23:16.022Z,3.00
2023-04-05T06:25:43.377Z,3.03
2023-04-05T06:28:09.951Z,2.20
2023-04-05T06:30:37.183Z,2.50
2023-04-05T06:33:03.951Z,2.23
2023-04-05T06:35:31.372Z,2.43
2023-04-05T06:37:58.502Z,2.60
2023-04-05T06:40:25.229Z,2.20
2023-04-05T06:42:52.241Z,2.70
2023-04-05T06:45:23.531Z,2.40
2023-04-05T06:47:50.523Z,2.30
2023-04-05T06:50:17.611Z,2.50
2023-04-05T06:52:44.639Z,2.70
2023-04-05T06:55:11.834Z,2.17
2023-04-05T06:57:38.451Z,2.50
2023-04-05T07:00:10.796Z,2.77
2023-04-05T07:02:37.580Z,2.00
2023-04-05T07:05:05.928Z,2.53
2023-04-05T07:07:33.329Z,2.57
2023-04-05T07:10:00.582Z,2.80
2023-04-05T07:12:27.680Z,1.80
2023-04-05T07:14:54.912Z,2.80
2023-04-05T07:17:21.728Z,2.43
2023-04-05T07:19:48.815Z,2.50
2023-04-05T07:22:15.624Z,2.53
2023-04-05T07:24:42.693Z,2.27
2023-04-05T07:27:09.329Z,2.30
2023-04-05T07:29:40.513Z,2.50
2023-04-05T07:32:07.789Z,2.33
2023-04-05T07:34:35.509Z,2.37
2023-04-05T07:37:03.242Z,1.90
2023-04-05T07:39:30.035Z,2.10
2023-04-05T07:41:57.116Z,2.10
2023-04-05T07:44:25.361Z,2.43
2023-04-05T07:46:52.465Z,2.30
2023-04-05T07:49:19.625Z,2.43
2023-04-05T07:51:48.079Z,2.60
2023-04-05T07:54:15.138Z,2.40
2023-04-05T07:56:42.469Z,3.00
2023-04-05T07:59:09.583Z,2.60
2023-04-05T08:01:36.993Z,2.90
2023-04-05T08:04:03.675Z,2.83
2023-04-05T08:06:31.109Z,2.23
2023-04-05T08:08:58.168Z,2.63
2023-04-05T08:11:26.428Z,2.57
2023-04-05T08:13:54.343Z,2.73
2023-04-05T08:16:21.522Z,2.77
2023-04-05T08:18:48.582Z,2.47
2023-04-05T08:21:15.814Z,2.97
2023-04-05T08:23:42.905Z,2.30
2023-04-05T08:26:09.978Z,2.87
2023-04-05T08:28:37.045Z,2.47
2023-04-05T08:31:03.686Z,2.33
2023-04-05T08:33:31.209Z,2.60
2023-04-05T08:35:58.675Z,2.47
2023-04-05T08:38:26.400Z,2.60
2023-04-05T08:40:53.035Z,2.97
2023-04-05T08:43:44.677Z,2.67
2023-04-05T08:46:14.914Z,2.33
2023-04-05T08:48:42.007Z,2.70
2023-04-05T08:51:11.821Z,2.40
2023-04-05T08:53:39.085Z,2.73
2023-04-05T08:56:06.927Z,3.17
2023-04-05T08:58:37.616Z,3.00
2023-04-05T09:01:06.684Z,2.57
2023-04-05T09:03:39.205Z,3.03
2023-04-05T09:06:09.108Z,2.87
2023-04-05T09:08:36.209Z,2.60
2023-04-05T09:11:02.859Z,2.70
2023-04-05T09:13:29.975Z,2.80
2023-04-05T09:15:57.235Z,3.10
2023-04-05T09:18:27.247Z,3.60
2023-04-05T09:21:04.327Z,3.40
2023-04-05T09:23:31.122Z,2.67
2023-04-05T09:25:58.177Z,2.67
2023-04-05T09:28:43.795Z,3.10
2023-04-05T09:31:10.976Z,3.23
2023-04-05T09:33:38.525Z,2.87
2023-04-05T09:36:05.660Z,3.00
2023-04-05T09:38:45.927Z,3.00
2023-04-05T09:41:12.979Z,3.23
2023-04-05T09:43:41.265Z,3.30
2023-04-05T09:46:39.776Z,3.23
2023-04-05T09:49:09.289Z,3.80
2023-04-05T09:51:37.758Z,3.57
2023-04-05T09:54:09.362Z,3.40
2023-04-05T09:56:38.676Z,3.60
2023-04-05T09:59:10.885Z,3.40
2023-04-05T10:01:41.357Z,5.43
2023-04-05T10:04:08.992Z,3.83
2023-04-05T10:06:40.962Z,3.50
2023-04-05T10:09:10.195Z,3.47
2023-04-05T10:11:38.137Z,3.70
2023-04-05T10:14:08.496Z,3.37
2023-04-05T10:17:11.984Z,3.67
2023-04-05T10:20:02.809Z,2.97
2023-04-05T10:22:36.491Z,3.20
2023-04-05T10:25:12.871Z,3.43
2023-04-05T10:27:47.149Z,3.67
2023-04-05T10:30:16.172Z,4.53
2023-04-05T10:32:52.508Z,4.07
2023-04-05T10:35:36.074Z,3.53
2023-04-05T10:38:17.445Z,3.63
2023-04-05T10:40:48.286Z,4.00
2023-04-05T10:43:19.494Z,3.50
2023-04-05T10:45:48.370Z,3.90
2023-04-05T10:48:53.251Z,3.50
2023-04-05T10:51:23.903Z,3.23
2023-04-05T10:53:51.667Z,3.57
2023-04-05T10:56:19.862Z,3.73
2023-04-05T10:58:49.697Z,3.33
2023-04-05T11:01:18.756Z,3.10
2023-04-05T11:03:49.122Z,3.93
2023-04-05T11:06:23.093Z,3.50
2023-04-05T11:08:53.775Z,3.33
2023-04-05T11:11:23.573Z,2.90
2023-04-05T11:13:55.396Z,3.40
2023-04-05T11:16:23.507Z,3.53
2023-04-05T11:18:51.931Z,3.37
2023-04-05T11:21:22.402Z,3.20
2023-04-05T11:24:06.971Z,3.97
2023-04-05T11:26:52.864Z,3.53
2023-04-05T11:29:20.328Z,3.57
2023-04-05T11:32:00.782Z,3.13
2023-04-05T11:34:27.375Z,3.43
2023-04-05T11:36:54.586Z,3.67
2023-04-05T11:39:21.687Z,3.70
2023-04-05T11:41:57.423Z,3.50
2023-04-05T11:44:24.894Z,3.27
2023-04-05T11:46:52.931Z,3.50
2023-04-05T11:49:23.207Z,3.37
2023-04-05T11:51:54.138Z,4.00
2023-04-05T11:54:33.732Z,3.13
2023-04-05T11:57:02.494Z,3.30
2023-04-05T11:59:38.617Z,4.07
2023-04-05T12:02:08.177Z,3.23
2023-04-05T12:04:36.030Z,3.87
2023-04-05T12:07:19.500Z,3.70
2023-04-05T12:10:11.876Z,3.00
2023-04-05T12:12:43.665Z,3.03
2023-04-05T12:15:14.168Z,3.20
2023-04-05T12:17:43.585Z,3.20
2023-04-05T12:20:17.965Z,3.10
2023-04-05T12:22:46.043Z,3.03
2023-04-05T12:25:15.537Z,3.20
2023-04-05T12:27:42.679Z,3.20
2023-04-05T12:30:17.117Z,3.60
2023-04-05T12:32:49.745Z,3.20
2023-04-05T12:35:18.406Z,3.07
2023-04-05T12:37:46.457Z,3.83
2023-04-05T12:40:13.890Z,3.13
2023-04-05T12:42:41.512Z,2.97
2023-04-05T12:45:12.967Z,3.07
2023-04-05T12:47:50.626Z,3.17
2023-04-05T12:50:19.059Z,3.50
2023-04-05T12:52:56.122Z,2.97
2023-04-05T12:55:23.481Z,3.67
2023-04-05T12:58:01.979Z,3.53
2023-04-05T13:00:29.910Z,3.20
2023-04-05T13:02:58.403Z,3.43
2023-04-05T13:05:27.320Z,3.47
2023-04-05T13:07:54.400Z,3.93
2023-04-05T13:10:23.216Z,3.30
2023-04-05T13:12:50.608Z,3.43
2023-04-05T13:15:18.270Z,3.20
2023-04-05T13:17:46.054Z,3.87
2023-04-05T13:20:13.195Z,3.77
2023-04-05T13:22:40.625Z,3.30
2023-04-05T13:25:07.655Z,2.60
2023-04-05T13:27:34.327Z,2.77
2023-04-05T13:30:01.387Z,3.00
2023-04-05T13:32:28.485Z,2.47
2023-04-05T13:34:55.669Z,3.03
2023-04-05T13:37:22.769Z,3.83
2023-04-05T13:39:49.896Z,3.23
2023-04-05T13:42:17.099Z,3.00
2023-04-05T13:44:44.208Z,2.97
2023-04-05T13:47:11.308Z,3.50
2023-04-05T13:49:38.378Z,3.40
2023-04-05T13:52:05.545Z,3.10
2023-04-05T13:54:32.579Z,2.93
2023-04-05T13:56:59.450Z,3.10
2023-04-05T13:59:26.923Z,3.03
2023-04-05T14:01:54.082Z,3.37
2023-04-05T14:04:21.337Z,3.47
2023-04-05T14:06:48.419Z,3.00
2023-04-05T14:09:15.892Z,3.10
2023-04-05T14:11:43.545Z,3.60
2023-04-05T14:14:10.586Z,3.17
2023-04-05T14:16:38.096Z,3.30
2023-04-05T14:19:05.275Z,3.30
2023-04-05T14:21:33.078Z,2.93
2023-04-05T14:24:00.496Z,3.23
2023-04-05T14:26:27.911Z,3.37
2023-04-05T14:28:55.052Z,3.37
2023-04-05T14:31:25.027Z,3.07
2023-04-05T14:33:52.562Z,3.50
2023-04-05T14:36:19.866Z,3.30
2023-04-05T14:38:47.677Z,3.47
2023-04-05T14:41:14.995Z,3.37
2023-04-05T14:43:42.158Z,3.23
2023-04-05T14:46:08.835Z,3.40
2023-04-05T14:48:37.343Z,3.57
2023-04-05T14:51:05.335Z,3.10
2023-04-05T14:53:32.475Z,3.17
2023-04-05T14:55:59.618Z,3.10
2023-04-05T14:58:29.089Z,3.43
2023-04-05T15:00:56.914Z,3.27
2023-04-05T15:03:24.503Z,3.60
2023-04-05T15:05:51.344Z,3.30
2023-04-05T15:08:18.528Z,3.77
2023-04-05T15:10:46.059Z,3.03
2023-04-05T15:13:13.631Z,3.20
2023-04-05T15:15:40.852Z,3.53
2023-04-05T15:18:08.142Z,3.83
2023-04-05T15:20:35.781Z,3.70
2023-04-05T15:23:02.780Z,4.03
2023-04-05T15:25:29.885Z,3.47
2023-04-05T15:27:59.704Z,3.33
2023-04-05T15:30:28.799Z,3.67
2023-04-05T15:32:56.105Z,3.83
2023-04-05T15:35:22.833Z,3.70
2023-04-05T15:37:50.041Z,4.23
2023-04-05T15:40:17.242Z,3.33
2023-04-05T15:42:44.288Z,3.60
2023-04-05T15:45:11.234Z,5.30
2023-04-05T15:47:39.033Z,4.87
2023-04-05T15:50:06.667Z,3.27
2023-04-05T15:52:34.280Z,3.57
2023-04-05T15:55:01.523Z,4.03
2023-04-05T15:57:28.731Z,3.30
2023-04-05T15:59:55.504Z,3.20
2023-04-05T16:02:22.711Z,3.10
2023-04-05T16:04:49.472Z,3.47
2023-04-05T16:07:16.695Z,3.10
2023-04-05T16:09:43.328Z,3.10
2023-04-05T16:12:10.543Z,3.50
2023-04-05T16:14:37.686Z,3.30
2023-04-05T16:17:04.389Z,3.47
2023-04-05T16:19:31.573Z,3.43
2023-04-05T16:22:00.108Z,3.40
2023-04-05T16:24:27.655Z,3.90
2023-04-05T16:26:54.685Z,3.73
2023-04-05T16:29:21.832Z,4.17
2023-04-05T16:31:48.943Z,3.23
2023-04-05T16:34:15.987Z,3.27
2023-04-05T16:36:43.090Z,3.13
2023-04-05T16:39:09.758Z,3.23
2023-04-05T16:41:36.806Z,3.50
2023-04-05T16:44:03.955Z,3.33
2023-04-05T16:46:32.234Z,3.57
2023-04-05T16:49:02.236Z,3.70
2023-04-05T16:51:29.589Z,4.07
2023-04-05T16:53:56.328Z,3.97
2023-04-05T16:56:24.257Z,4.20
2023-04-05T16:58:51.854Z,4.27
2023-04-05T17:01:18.984Z,4.20
2023-04-05T17:03:47.047Z,4.13
2023-04-05T17:06:14.687Z,3.47
2023-04-05T17:08:41.916Z,4.53
2023-04-05T17:11:09.025Z,3.73
2023-04-05T17:13:36.208Z,3.43
2023-04-05T17:16:03.331Z,3.87
2023-04-05T17:18:30.028Z,3.40
2023-04-05T17:20:57.103Z,3.97
2023-04-05T17:23:24.688Z,4.17
2023-04-05T17:25:51.761Z,4.03
2023-04-05T17:28:18.386Z,3.60
2023-04-05T17:30:45.455Z,3.50
2023-04-05T17:33:12.555Z,3.80
2023-04-05T17:35:39.713Z,3.53
2023-04-05T17:38:06.860Z,3.20
2023-04-05T17:40:33.921Z,3.97
2023-04-05T17:43:01.115Z,3.50
2023-04-05T17:45:28.197Z,3.47
2023-04-05T17:47:55.318Z,4.23
2023-04-05T17:50:24.753Z,3.40
2023-04-05T17:52:52.002Z,3.43
2023-04-05T17:55:19.129Z,3.73
2023-04-05T17:57:46.248Z,3.33
2023-04-05T18:00:13.408Z,3.27
2023-04-05T18:02:41.460Z,3.13
2023-04-05T18:05:10.038Z,2.90
2023-04-05T18:07:37.711Z,3.40
2023-04-05T18:10:05.503Z,2.70
2023-04-05T18:12:33.097Z,3.60
2023-04-05T18:15:00.372Z,2.73
2023-04-05T18:17:27.940Z,3.17
2023-04-05T18:19:55.032Z,3.00
2023-04-05T18:22:22.154Z,3.00
2023-04-05T18:24:49.223Z,2.90
2023-04-05T18:27:16.659Z,2.90
2023-04-05T18:29:46.035Z,3.13
2023-04-05T18:32:12.676Z,3.20
2023-04-05T18:34:39.292Z,3.43
2023-04-05T18:37:06.457Z,2.57
2023-04-05T18:39:33.503Z,2.77
2023-04-05T18:42:00.619Z,3.00
2023-04-05T18:44:27.680Z,2.70
2023-04-05T18:46:54.773Z,3.50
2023-04-05T18:49:21.917Z,2.97
2023-04-05T18:51:49.046Z,2.63
2023-04-05T18:54:18.318Z,3.20
2023-04-05T18:56:45.560Z,10.30
2023-04-05T18:59:12.571Z,6.90
2023-04-05T19:01:39.982Z,6.13
2023-04-05T19:04:07.308Z,5.00
2023-04-05T19:06:34.835Z,3.50
2023-04-05T19:09:02.057Z,2.53
2023-04-05T19:11:28.806Z,2.90
2023-04-05T19:13:56.054Z,3.07
2023-04-05T19:16:22.716Z,3.27
2023-04-05T19:18:49.850Z,2.87
2023-04-05T19:21:17.482Z,3.20
2023-04-05T19:23:44.582Z,2.90
2023-04-05T19:26:12.129Z,3.27
2023-04-05T19:28:38.749Z,3.10
2023-04-05T19:31:06.240Z,2.57
2023-04-05T19:33:33.459Z,3.13
2023-04-05T19:36:00.286Z,2.90
2023-04-05T19:38:27.133Z,2.50
2023-04-05T19:40:54.079Z,2.70
2023-04-05T19:43:21.320Z,2.53
2023-04-05T19:45:51.943Z,2.70
2023-04-05T19:48:38.930Z,2.97
2023-04-05T19:51:10.303Z,2.53
2023-04-05T19:53:44.058Z,2.83
2023-04-05T19:56:15.105Z,2.33
2023-04-05T19:58:42.691Z,2.27
2023-04-05T20:01:10.070Z,2.60
2023-04-05T20:03:41.295Z,2.50
2023-04-05T20:06:13.366Z,2.33
2023-04-05T20:08:42.110Z,2.33
2023-04-05T20:11:13.089Z,2.77
2023-04-05T20:14:01.885Z,2.67
2023-04-05T20:16:34.074Z,2.87
2023-04-05T20:19:07.049Z,2.83
2023-04-05T20:21:34.837Z,2.20
2023-04-05T20:24:02.213Z,2.90
2023-04-05T20:26:32.549Z,2.60
2023-04-05T20:29:07.485Z,2.93
2023-04-05T20:31:38.881Z,3.07
2023-04-05T20:34:21.688Z,3.10
2023-04-05T20:36:50.738Z,2.80
2023-04-05T20:39:17.571Z,3.07
2023-04-05T20:41:45.043Z,2.80
2023-04-05T20:44:12.224Z,3.27
2023-04-05T20:46:39.335Z,2.27
2023-04-05T20:49:07.093Z,2.53
2023-04-05T20:51:34.048Z,2.40
2023-04-05T20:54:01.186Z,2.10
2023-04-05T20:56:28.275Z,2.43
2023-04-05T20:58:55.899Z,2.40
2023-04-05T21:01:23.208Z,2.63
2023-04-05T21:03:50.460Z,2.40
2023-04-05T21:06:17.665Z,2.33
2023-04-05T21:08:44.289Z,2.67
2023-04-05T21:11:11.844Z,2.27
2023-04-05T21:13:39.648Z,2.73
2023-04-05T21:16:06.903Z,2.67
2023-04-05T21:18:34.144Z,2.83
2023-04-05T21:21:00.923Z,2.60
2023-04-05T21:23:28.952Z,3.10
2023-04-05T21:25:56.934Z,3.40
2023-04-05T21:28:24.572Z,2.90
2023-04-05T21:30:51.556Z,3.07
2023-04-05T21:33:18.957Z,2.60
2023-04-05T21:35:46.092Z,2.70
2023-04-05T21:38:15.590Z,3.70
2023-04-05T21:40:44.633Z,2.63
2023-04-05T21:43:12.516Z,3.03
2023-04-05T21:45:39.110Z,3.30
2023-04-05T21:48:06.343Z,2.83
2023-04-05T21:50:33.453Z,2.80
2023-04-05T21:53:00.593Z,2.73
2023-04-05T21:55:27.611Z,2.80
2023-04-05T21:57:54.644Z,2.87
2023-04-05T22:00:21.621Z,2.70
2023-04-05T22:02:48.731Z,2.37
2023-04-05T22:05:29.600Z,2.80
2023-04-05T22:08:01.708Z,2.63
2023-04-05T22:10:29.070Z,2.37
2023-04-05T22:12:56.454Z,2.33
2023-04-05T22:15:23.502Z,3.10
2023-04-05T22:17:50.539Z,2.57
2023-04-05T22:20:17.758Z,2.63
2023-04-05T22:22:44.810Z,3.67
2023-04-05T22:25:11.936Z,2.60
2023-04-05T22:27:39.377Z,2.27
2023-04-05T22:30:08.073Z,2.40
2023-04-05T22:32:35.490Z,3.23
2023-04-05T22:35:04.109Z,2.50
2023-04-05T22:37:35.366Z,3.00
2023-04-05T22:40:04.843Z,2.83
2023-04-05T22:42:31.667Z,2.50
2023-04-05T22:44:58.767Z,2.93
2023-04-05T22:47:25.453Z,2.67
2023-04-05T22:49:52.347Z,3.40
2023-04-05T22:52:19.487Z,2.67
2023-04-05T22:54:46.327Z,2.53
2023-04-05T22:57:13.519Z,3.13
2023-04-05T22:59:40.838Z,2.87
2023-04-05T23:02:07.629Z,2.70
2023-04-05T23:04:34.725Z,3.17
2023-04-05T23:07:01.777Z,2.93
2023-04-05T23:09:28.859Z,2.67
2023-04-05T23:11:56.162Z,2.80
2023-04-05T23:14:22.725Z,2.70
2023-04-05T23:16:49.777Z,3.13
2023-04-05T23:19:16.834Z,2.93
2023-04-05T23:21:43.963Z,3.00
2023-04-05T23:24:10.975Z,3.00
2023-04-05T23:26:38.082Z,3.30
2023-04-05T23:29:05.179Z,3.90
2023-04-05T23:31:32.366Z,3.07
2023-04-05T23:33:59.507Z,3.00
2023-04-05T23:36:27.705Z,3.23
2023-04-05T23:38:55.156Z,3.20
2023-04-05T23:41:22.430Z,3.17
2023-04-05T23:43:49.467Z,3.30
2023-04-05T23:46:16.721Z,3.77
2023-04-05T23:48:44.079Z,3.90
2023-04-05T23:51:11.170Z,3.10
2023-04-05T23:53:38.244Z,3.03
2023-04-05T23:56:06.082Z,3.20
2023-04-05T23:58:33.131Z,3.27
